Time,TemperatureF,DewpointF,PressureIn,WindDirection,WindDirectionDegrees,WindSpeedMPH,WindSpeedGustMPH,Humidity,HourlyPrecipIn,Conditions,Clouds,dailyrainin,SoftwareType,DateUTC
2013-03-02 00:00:00,64.0,59.7,29.96,North,5,14.0,16.0,86,0.00,,,0.02,Wunderground v.1.15,2013-03-02 05:00:00,
2013-03-02 00:10:00,64.1,59.8,29.97,North,356,16.0,17.0,86,0.00,,,0.00,Wunderground v.1.15,2013-03-02 05:10:00,
2013-03-02 00:15:00,64.4,60.1,29.96,North,4,17.0,17.0,86,0.00,,,0.00,Wunderground v.1.15,2013-03-02 05:15:00,
2013-03-02 00:20:00,64.6,60.3,29.96,North,11,16.0,16.0,86,0.00,,,0.00,Wunderground v.1.15,2013-03-02 05:20:00,
2013-03-02 00:25:00,64.6,60.0,29.96,North,11,16.0,16.0,85,0.00,,,0.00,Wunderground v.1.15,2013-03-02 05:25:00,
2013-03-02 00:30:00,64.6,60.0,29.97,North,9,15.0,16.0,85,0.00,,,0.00,Wunderground v.1.15,2013-03-02 05:30:00,
2013-03-02 00:35:00,64.6,60.0,29.97,North,355,16.0,17.0,85,0.00,,,0.00,Wunderground v.1.15,2013-03-02 05:35:00,
2013-03-02 00:45:00,64.7,60.1,29.96,North,351,14.0,16.0,85,0.00,,,0.00,Wunderground v.1.15,2013-03-02 05:45:00,
2013-03-02 00:50:00,64.8,60.2,29.96,North,9,14.0,14.0,85,0.00,,,0.00,Wunderground v.1.15,2013-03-02 05:50:00,
2013-03-02 00:55:00,64.9,60.3,29.95,NNE,14,14.0,17.0,85,0.00,,,0.00,Wunderground v.1.15,2013-03-02 05:55:00,
2013-03-02 01:05:00,65.0,60.0,29.96,North,10,16.0,17.0,84,0.00,,,0.00,Wunderground v.1.15,2013-03-02 06:05:00,
2013-03-02 01:10:00,65.0,60.0,29.96,North,5,15.0,15.0,84,0.00,,,0.00,Wunderground v.1.15,2013-03-02 06:10:00,
2013-03-02 01:20:00,65.1,60.1,29.96,North,5,14.0,15.0,84,0.00,,,0.00,Wunderground v.1.15,2013-03-02 06:20:00,
2013-03-02 01:30:00,65.0,59.7,29.96,North,350,15.0,15.0,83,0.00,,,0.00,Wunderground v.1.15,2013-03-02 06:30:00,
2013-03-02 01:35:00,65.0,59.7,29.96,North,5,16.0,18.0,83,0.00,,,0.00,Wunderground v.1.15,2013-03-02 06:35:00,
2013-03-02 01:40:00,65.0,59.7,29.96,North,360,16.0,16.0,83,0.00,,,0.00,Wunderground v.1.15,2013-03-02 06:40:00,
2013-03-02 01:50:00,65.2,59.6,29.96,North,355,16.0,16.0,82,0.00,,,0.00,Wunderground v.1.15,2013-03-02 06:50:00,
2013-03-02 01:55:00,65.2,59.9,29.95,NNE,14,14.0,16.0,83,0.00,,,0.00,Wunderground v.1.15,2013-03-02 06:55:00,
2013-03-02 02:00:00,65.3,60.0,29.96,North,11,14.0,17.0,83,0.00,,,0.00,Wunderground v.1.15,2013-03-02 07:00:00,
2013-03-02 02:10:00,65.3,60.0,29.95,NNE,13,16.0,16.0,83,0.00,,,0.00,Wunderground v.1.15,2013-03-02 07:10:00,
2013-03-02 02:15:00,65.1,59.5,29.96,North,9,16.0,16.0,82,0.00,,,0.00,Wunderground v.1.15,2013-03-02 07:15:00,
2013-03-02 02:25:00,65.2,59.9,29.96,North,359,15.0,18.0,83,0.00,,,0.00,Wunderground v.1.15,2013-03-02 07:25:00,
2013-03-02 02:30:00,65.2,59.9,29.95,North,11,14.0,14.0,83,0.00,,,0.00,Wunderground v.1.15,2013-03-02 07:30:00,
2013-03-02 02:35:00,65.1,59.8,29.95,North,6,15.0,15.0,83,0.00,,,0.00,Wunderground v.1.15,2013-03-02 07:35:00,
2013-03-02 02:40:00,65.1,59.8,29.95,North,6,16.0,16.0,83,0.00,,,0.00,Wunderground v.1.15,2013-03-02 07:40:00,
2013-03-02 02:50:00,64.9,59.6,29.95,NNE,23,17.0,17.0,83,0.00,,,0.00,Wunderground v.1.15,2013-03-02 07:50:00,
2013-03-02 03:00:00,64.9,59.6,29.95,NNE,13,16.0,16.0,83,0.00,,,0.00,Wunderground v.1.15,2013-03-02 08:00:00,
2013-03-02 03:05:00,64.8,59.5,29.95,North,10,16.0,16.0,83,0.00,,,0.00,Wunderground v.1.15,2013-03-02 08:05:00,
2013-03-02 03:10:00,64.8,59.5,29.95,NNE,15,16.0,18.0,83,0.00,,,0.00,Wunderground v.1.15,2013-03-02 08:10:00,
2013-03-02 03:20:00,64.8,59.5,29.94,North,356,19.0,19.0,83,0.00,,,0.00,Wunderground v.1.15,2013-03-02 08:20:00,
2013-03-02 03:30:00,64.9,59.6,29.95,North,6,19.0,19.0,83,0.00,,,0.00,Wunderground v.1.15,2013-03-02 08:30:00,
2013-03-02 03:35:00,64.8,59.5,29.95,North,7,19.0,19.0,83,0.00,,,0.00,Wunderground v.1.15,2013-03-02 08:35:00,
2013-03-02 03:40:00,64.7,59.4,29.95,NNW,340,18.0,18.0,83,0.00,,,0.00,Wunderground v.1.15,2013-03-02 08:40:00,
2013-03-02 03:50:00,64.7,59.4,29.95,North,353,20.0,23.0,83,0.00,,,0.00,Wunderground v.1.15,2013-03-02 08:50:00,
2013-03-02 03:55:00,64.7,59.4,29.95,North,1,21.0,23.0,83,0.00,,,0.00,Wunderground v.1.15,2013-03-02 08:55:00,
2013-03-02 04:05:00,64.8,59.5,29.95,North,351,20.0,22.0,83,0.00,,,0.00,Wunderground v.1.15,2013-03-02 09:05:00,
2013-03-02 04:10:00,64.5,58.9,29.95,North,354,22.0,22.0,82,0.00,,,0.00,Wunderground v.1.15,2013-03-02 09:10:00,
2013-03-02 04:20:00,64.4,58.8,29.95,North,349,21.0,21.0,82,0.00,,,0.00,Wunderground v.1.15,2013-03-02 09:20:00,
2013-03-02 04:25:00,64.4,58.8,29.95,North,5,21.0,21.0,82,0.00,,,0.00,Wunderground v.1.15,2013-03-02 09:25:00,
2013-03-02 04:30:00,64.4,58.8,29.96,North,1,20.0,20.0,82,0.00,,,0.00,Wunderground v.1.15,2013-03-02 09:30:00,
2013-03-02 04:40:00,64.3,58.7,29.96,NNW,342,20.0,23.0,82,0.00,,,0.00,Wunderground v.1.15,2013-03-02 09:40:00,
2013-03-02 04:45:00,64.3,58.7,29.96,North,1,20.0,24.0,82,0.00,,,0.00,Wunderground v.1.15,2013-03-02 09:45:00,
2013-03-02 04:50:00,64.2,58.6,29.96,North,360,20.0,20.0,82,0.00,,,0.00,Wunderground v.1.15,2013-03-02 09:50:00,
2013-03-02 05:00:00,64.1,58.5,29.96,NNW,346,20.0,20.0,82,0.00,,,0.00,Wunderground v.1.15,2013-03-02 10:00:00,
2013-03-02 05:45:00,63.9,58.0,29.97,North,7,21.0,24.0,81,0.00,,,0.00,Wunderground v.1.15,2013-03-02 10:45:00,
2013-03-02 05:55:00,63.9,58.0,29.97,NNW,344,21.0,23.0,81,0.00,,,0.00,Wunderground v.1.15,2013-03-02 10:55:00,
2013-03-02 06:00:00,64.0,58.1,29.97,North,352,21.0,21.0,81,0.00,,,0.00,Wunderground v.1.15,2013-03-02 11:00:00,
2013-03-02 06:10:00,64.1,58.1,29.97,North,354,20.0,20.0,81,0.00,,,0.00,Wunderground v.1.15,2013-03-02 11:10:00,
2013-03-02 06:20:00,64.0,57.7,29.97,NNW,348,22.0,26.0,80,0.00,,,0.00,Wunderground v.1.15,2013-03-02 11:20:00,
2013-03-02 06:25:00,64.0,57.7,29.97,NNW,345,22.0,26.0,80,0.00,,,0.00,Wunderground v.1.15,2013-03-02 11:25:00,
2013-03-02 06:30:00,63.9,57.3,29.97,North,351,22.0,22.0,79,0.00,,,0.00,Wunderground v.1.15,2013-03-02 11:30:00,
2013-03-02 06:40:00,64.0,57.4,29.98,North,355,19.0,20.0,79,0.00,,,0.00,Wunderground v.1.15,2013-03-02 11:40:00,
2013-03-02 06:50:00,64.0,57.4,29.97,North,355,20.0,20.0,79,0.00,,,0.00,Wunderground v.1.15,2013-03-02 11:50:00,
2013-03-02 06:55:00,64.0,57.4,29.98,North,349,20.0,21.0,79,0.00,,,0.00,Wunderground v.1.15,2013-03-02 11:55:00,
2013-03-02 07:05:00,64.0,57.0,29.98,NNW,336,19.0,23.0,78,0.00,,,0.00,Wunderground v.1.15,2013-03-02 12:05:00,
2013-03-02 07:10:00,64.0,57.0,29.98,North,4,22.0,24.0,78,0.00,,,0.00,Wunderground v.1.15,2013-03-02 12:10:00,
2013-03-02 07:20:00,64.0,56.6,29.98,NNW,346,22.0,23.0,77,0.00,,,0.00,Wunderground v.1.15,2013-03-02 12:20:00,
2013-03-02 07:25:00,64.0,56.6,29.98,NNW,343,22.0,23.0,77,0.00,,,0.00,Wunderground v.1.15,2013-03-02 12:25:00,
2013-03-02 07:30:00,64.0,56.6,29.99,North,350,23.0,23.0,77,0.00,,,0.00,Wunderground v.1.15,2013-03-02 12:30:00,
2013-03-02 07:40:00,64.2,56.8,29.99,North,3,22.0,24.0,77,0.00,,,0.00,Wunderground v.1.15,2013-03-02 12:40:00,
2013-03-02 07:45:00,64.2,56.8,29.99,NNW,346,21.0,24.0,77,0.00,,,0.00,Wunderground v.1.15,2013-03-02 12:45:00,
2013-03-02 07:50:00,64.1,56.7,29.99,North,1,21.0,22.0,77,0.00,,,0.00,Wunderground v.1.15,2013-03-02 12:50:00,
2013-03-02 08:00:00,64.3,56.9,30.00,North,350,20.0,23.0,77,0.00,,,0.00,Wunderground v.1.15,2013-03-02 13:00:00,
2013-03-02 08:05:00,64.2,56.5,30.00,North,350,22.0,23.0,76,0.00,,,0.00,Wunderground v.1.15,2013-03-02 13:05:00,
2013-03-02 08:15:00,64.3,56.9,30.00,North,359,23.0,24.0,77,0.00,,,0.00,Wunderground v.1.15,2013-03-02 13:15:00,
2013-03-02 08:20:00,64.2,56.5,30.00,North,356,22.0,24.0,76,0.00,,,0.00,Wunderground v.1.15,2013-03-02 13:20:00,
2013-03-02 08:30:00,64.2,56.1,29.99,NNE,13,21.0,23.0,75,0.00,,,0.00,Wunderground v.1.15,2013-03-02 13:30:00,
2013-03-02 08:35:00,64.3,56.2,30.00,NNW,347,21.0,23.0,75,0.00,,,0.00,Wunderground v.1.15,2013-03-02 13:35:00,
2013-03-02 08:45:00,64.4,56.3,30.01,North,354,20.0,21.0,75,0.00,,,0.00,Wunderground v.1.15,2013-03-02 13:45:00,
2013-03-02 08:50:00,64.6,56.9,30.01,NNW,331,19.0,19.0,76,0.00,,,0.00,Wunderground v.1.15,2013-03-02 13:50:00,
2013-03-02 09:00:00,64.7,56.6,30.01,NNW,343,17.0,20.0,75,0.00,,,0.00,Wunderground v.1.15,2013-03-02 14:00:00,
2013-03-02 09:05:00,64.8,56.7,30.01,North,4,18.0,20.0,75,0.00,,,0.00,Wunderground v.1.15,2013-03-02 14:05:00,
2013-03-02 09:10:00,64.9,56.8,30.01,NNE,13,18.0,19.0,75,0.00,,,0.00,Wunderground v.1.15,2013-03-02 14:10:00,
2013-03-02 09:20:00,64.3,56.6,30.02,NNE,33,18.0,18.0,76,0.00,,,0.00,Wunderground v.1.15,2013-03-02 14:20:00,
2013-03-02 09:25:00,63.9,56.5,30.02,NNE,33,18.0,18.0,77,0.00,,,0.00,Wunderground v.1.15,2013-03-02 14:25:00,
2013-03-02 09:30:00,63.6,56.3,30.02,NNE,24,17.0,18.0,77,0.00,,,0.00,Wunderground v.1.15,2013-03-02 14:30:00,
2013-03-02 09:40:00,63.7,56.7,30.02,NNE,28,18.0,20.0,78,0.00,,,0.00,Wunderground v.1.15,2013-03-02 14:40:00,
2013-03-02 09:45:00,63.7,56.7,30.02,NNE,31,18.0,20.0,78,0.00,,,0.00,Wunderground v.1.15,2013-03-02 14:45:00,
2013-03-02 09:50:00,63.7,56.7,30.02,NNE,23,18.0,22.0,78,0.00,,,0.00,Wunderground v.1.15,2013-03-02 14:50:00,
2013-03-02 10:00:00,63.5,56.5,30.02,NNE,32,18.0,18.0,78,0.00,,,0.00,Wunderground v.1.15,2013-03-02 15:00:00,
2013-03-02 10:10:00,63.5,56.9,30.02,NNE,20,17.0,17.0,79,0.00,,,0.00,Wunderground v.1.15,2013-03-02 15:10:00,
2013-03-02 10:15:00,63.6,57.0,30.02,NNE,20,17.0,17.0,79,0.00,,,0.00,Wunderground v.1.15,2013-03-02 15:15:00,
2013-03-02 10:20:00,63.5,56.5,30.01,NNE,24,17.0,18.0,78,0.00,,,0.00,Wunderground v.1.15,2013-03-02 15:20:00,
2013-03-02 10:30:00,63.5,56.9,30.02,NNE,16,18.0,18.0,79,0.00,,,0.00,Wunderground v.1.15,2013-03-02 15:30:00,
2013-03-02 10:35:00,63.3,56.3,30.02,NNE,32,18.0,18.0,78,0.00,,,0.00,Wunderground v.1.15,2013-03-02 15:35:00,
2013-03-02 10:45:00,62.9,55.6,30.02,NNE,30,17.0,19.0,77,0.00,,,0.00,Wunderground v.1.15,2013-03-02 15:45:00,
2013-03-02 10:50:00,63.0,55.7,30.03,NNE,25,16.0,16.0,77,0.00,,,0.00,Wunderground v.1.15,2013-03-02 15:50:00,
2013-03-02 11:00:00,62.9,55.2,30.02,NNE,16,14.0,14.0,76,0.00,,,0.00,Wunderground v.1.15,2013-03-02 16:00:00,
2013-03-02 11:05:00,63.4,56.1,30.02,North,11,14.0,14.0,77,0.00,,,0.00,Wunderground v.1.15,2013-03-02 16:05:00,
2013-03-02 11:10:00,63.7,56.4,30.02,NNE,30,14.0,14.0,77,0.00,,,0.00,Wunderground v.1.15,2013-03-02 16:10:00,
2013-03-02 11:20:00,63.8,56.1,30.02,NNE,27,13.0,13.0,76,0.00,,,0.00,Wunderground v.1.15,2013-03-02 16:20:00,
2013-03-02 11:25:00,63.7,55.6,30.02,NNE,18,13.0,13.0,75,0.00,,,0.00,Wunderground v.1.15,2013-03-02 16:25:00,
2013-03-02 11:35:00,63.7,55.6,30.03,NE,40,12.0,13.0,75,0.00,,,0.00,Wunderground v.1.15,2013-03-02 16:35:00,
2013-03-02 11:40:00,63.8,56.1,30.03,NNE,21,12.0,12.0,76,0.00,,,0.00,Wunderground v.1.15,2013-03-02 16:40:00,
2013-03-02 11:45:00,63.7,55.6,30.02,NNE,27,12.0,12.0,75,0.00,,,0.00,Wunderground v.1.15,2013-03-02 16:45:00,
2013-03-02 11:55:00,63.9,56.2,30.02,NNE,14,12.0,12.0,76,0.00,,,0.00,Wunderground v.1.15,2013-03-02 16:55:00,
2013-03-02 12:00:00,64.1,56.7,30.02,NNE,15,12.0,12.0,77,0.00,,,0.00,Wunderground v.1.15,2013-03-02 17:00:00,
2013-03-02 12:10:00,64.4,57.0,30.01,North,11,11.0,11.0,77,0.00,,,0.00,Wunderground v.1.15,2013-03-02 17:10:00,
2013-03-02 12:15:00,64.5,57.1,30.01,North,7,12.0,12.0,77,0.00,,,0.00,Wunderground v.1.15,2013-03-02 17:15:00,
2013-03-02 12:20:00,64.7,57.3,30.01,North,5,11.0,11.0,77,0.00,,,0.00,Wunderground v.1.15,2013-03-02 17:20:00,
2013-03-02 12:30:00,64.9,57.5,30.01,North,5,12.0,12.0,77,0.00,,,0.00,Wunderground v.1.15,2013-03-02 17:30:00,
2013-03-02 12:35:00,65.0,57.2,30.01,North,3,12.0,12.0,76,0.00,,,0.00,Wunderground v.1.15,2013-03-02 17:35:00,
2013-03-02 12:45:00,65.2,57.4,30.01,NNE,17,11.0,12.0,76,0.00,,,0.00,Wunderground v.1.15,2013-03-02 17:45:00,
2013-03-02 12:50:00,65.3,57.5,30.00,North,355,11.0,12.0,76,0.00,,,0.00,Wunderground v.1.15,2013-03-02 17:50:00,
2013-03-02 12:55:00,65.5,57.4,30.00,North,358,12.0,12.0,75,0.00,,,0.00,Wunderground v.1.15,2013-03-02 17:55:00,
2013-03-02 13:05:00,66.0,57.5,30.00,North,355,10.0,10.0,74,0.00,,,0.00,Wunderground v.1.15,2013-03-02 18:05:00,
2013-03-02 13:15:00,66.4,57.5,30.00,NNW,347,10.0,13.0,73,0.00,,,0.00,Wunderground v.1.15,2013-03-02 18:15:00,
2013-03-02 13:20:00,66.7,57.8,30.00,NNW,346,10.0,10.0,73,0.00,,,0.00,Wunderground v.1.15,2013-03-02 18:20:00,
2013-03-02 13:30:00,67.4,58.1,29.99,NNW,346,12.0,12.0,72,0.00,,,0.00,Wunderground v.1.15,2013-03-02 18:30:00,
2013-03-02 13:35:00,67.6,58.2,29.98,NNW,339,12.0,12.0,72,0.00,,,0.00,Wunderground v.1.15,2013-03-02 18:35:00,
2013-03-02 13:40:00,67.8,57.7,29.98,NNW,347,11.0,13.0,70,0.00,,,0.00,Wunderground v.1.15,2013-03-02 18:40:00,
2013-03-02 13:50:00,67.4,57.7,29.98,NW,314,12.0,12.0,71,0.00,,,0.00,Wunderground v.1.15,2013-03-02 18:50:00,
2013-03-02 13:55:00,67.1,56.6,29.98,NW,323,12.0,12.0,69,0.00,,,0.00,Wunderground v.1.15,2013-03-02 18:55:00,
2013-03-02 14:05:00,66.7,57.0,29.98,NNW,331,12.0,12.0,71,0.00,,,0.00,Wunderground v.1.15,2013-03-02 19:05:00,
2013-03-02 14:10:00,66.5,56.0,29.98,NW,313,12.0,12.0,69,0.00,,,0.00,Wunderground v.1.15,2013-03-02 19:10:00,
2013-03-02 14:20:00,66.9,57.6,29.97,North,360,12.0,12.0,72,0.00,,,0.00,Wunderground v.1.15,2013-03-02 19:20:00,
2013-03-02 14:25:00,68.1,57.9,29.97,NNW,327,12.0,12.0,70,0.00,,,0.00,Wunderground v.1.15,2013-03-02 19:25:00,
2013-03-02 14:30:00,68.0,58.2,29.97,NNW,333,12.0,12.0,71,0.00,,,0.00,Wunderground v.1.15,2013-03-02 19:30:00,
2013-03-02 14:40:00,68.3,57.3,29.97,NNW,340,12.0,15.0,68,0.00,,,0.00,Wunderground v.1.15,2013-03-02 19:40:00,
2013-03-02 14:45:00,67.8,56.0,29.97,NW,312,14.0,18.0,66,0.00,,,0.00,Wunderground v.1.15,2013-03-02 19:45:00,
2013-03-02 14:50:00,67.3,55.1,29.97,WNW,299,15.0,15.0,65,0.00,,,0.00,Wunderground v.1.15,2013-03-02 19:50:00,
2013-03-02 15:00:00,67.6,57.5,29.96,NNW,333,13.0,13.0,70,0.00,,,0.00,Wunderground v.1.15,2013-03-02 20:00:00,
2013-03-02 15:05:00,67.8,57.3,29.97,NNW,346,13.0,15.0,69,0.00,,,0.00,Wunderground v.1.15,2013-03-02 20:05:00,
2013-03-02 15:10:00,67.4,56.1,29.96,NW,314,14.0,17.0,67,0.00,,,0.00,Wunderground v.1.15,2013-03-02 20:10:00,
2013-03-02 15:20:00,66.5,56.0,29.96,NW,312,16.0,16.0,69,0.00,,,0.00,Wunderground v.1.15,2013-03-02 20:20:00,
2013-03-02 15:25:00,65.8,55.3,29.96,NW,323,17.0,17.0,69,0.00,,,0.00,Wunderground v.1.15,2013-03-02 20:25:00,
2013-03-02 15:35:00,65.5,55.1,29.96,NW,316,16.0,18.0,69,0.00,,,0.00,Wunderground v.1.15,2013-03-02 20:35:00,
2013-03-02 15:40:00,65.6,55.2,29.96,NW,322,16.0,16.0,69,0.00,,,0.00,Wunderground v.1.15,2013-03-02 20:40:00,
2013-03-02 15:50:00,65.5,55.1,29.97,NW,315,20.0,20.0,69,0.00,,,0.00,Wunderground v.1.15,2013-03-02 20:50:00,
2013-03-02 15:55:00,64.8,55.6,29.96,NW,308,21.0,21.0,72,0.00,,,0.00,Wunderground v.1.15,2013-03-02 20:55:00,
2013-03-02 16:00:00,64.9,56.8,29.97,NNW,338,19.0,21.0,75,0.00,,,0.00,Wunderground v.1.15,2013-03-02 21:00:00,
2013-03-02 16:10:00,65.2,57.1,29.97,NNW,332,19.0,19.0,75,0.00,,,0.00,Wunderground v.1.15,2013-03-02 21:10:00,
2013-03-02 16:15:00,65.4,57.6,29.97,NNW,347,19.0,19.0,76,0.00,,,0.00,Wunderground v.1.15,2013-03-02 21:15:00,
2013-03-02 16:25:00,65.8,57.7,29.97,North,360,21.0,21.0,75,0.00,,,0.00,Wunderground v.1.15,2013-03-02 21:25:00,
2013-03-02 16:30:00,65.8,57.3,29.97,North,353,20.0,22.0,74,0.00,,,0.00,Wunderground v.1.15,2013-03-02 21:30:00,
2013-03-02 16:40:00,65.8,57.3,29.98,North,349,21.0,21.0,74,0.00,,,0.00,Wunderground v.1.15,2013-03-02 21:40:00,
2013-03-02 16:50:00,65.9,56.6,29.98,North,7,20.0,20.0,72,0.00,,,0.00,Wunderground v.1.15,2013-03-02 21:50:00,
2013-03-02 16:55:00,65.8,56.9,29.98,North,11,18.0,20.0,73,0.00,,,0.00,Wunderground v.1.15,2013-03-02 21:55:00,
2013-03-02 17:05:00,65.4,56.1,29.98,North,8,19.0,21.0,72,0.00,,,0.00,Wunderground v.1.15,2013-03-02 22:05:00,
2013-03-02 17:10:00,65.2,56.3,29.98,North,358,20.0,23.0,73,0.00,,,0.00,Wunderground v.1.15,2013-03-02 22:10:00,
2013-03-02 17:15:00,65.0,56.1,29.98,North,7,20.0,23.0,73,0.00,,,0.00,Wunderground v.1.15,2013-03-02 22:15:00,
2013-03-02 17:25:00,64.8,55.9,29.99,North,3,17.0,18.0,73,0.00,,,0.00,Wunderground v.1.15,2013-03-02 22:25:00,
2013-03-02 17:30:00,65.0,56.1,29.98,NNW,338,17.0,17.0,73,0.00,,,0.00,Wunderground v.1.15,2013-03-02 22:30:00,
2013-03-02 17:35:00,65.2,56.7,29.98,North,8,17.0,17.0,74,0.00,,,0.00,Wunderground v.1.15,2013-03-02 22:35:00,
2013-03-02 17:45:00,64.9,56.0,29.99,NNE,13,18.0,21.0,73,0.00,,,0.00,Wunderground v.1.15,2013-03-02 22:45:00,
2013-03-02 17:50:00,64.5,55.7,29.99,North,356,19.0,19.0,73,0.00,,,0.00,Wunderground v.1.15,2013-03-02 22:50:00,
2013-03-02 18:00:00,64.0,55.5,29.99,North,360,18.0,18.0,74,0.00,,,0.00,Wunderground v.1.15,2013-03-02 23:00:00,
2013-03-02 18:05:00,63.8,55.4,29.99,North,5,17.0,18.0,74,0.00,,,0.00,Wunderground v.1.15,2013-03-02 23:05:00,
2013-03-02 18:10:00,63.5,55.1,29.99,NNW,346,15.0,16.0,74,0.00,,,0.00,Wunderground v.1.15,2013-03-02 23:10:00,
2013-03-02 18:20:00,63.3,54.9,30.00,NNW,346,17.0,18.0,74,0.00,,,0.00,Wunderground v.1.15,2013-03-02 23:20:00,
2013-03-02 18:25:00,63.2,54.8,30.00,NNE,16,17.0,18.0,74,0.00,,,0.00,Wunderground v.1.15,2013-03-02 23:25:00,
2013-03-02 18:30:00,63.1,54.7,30.00,North,2,16.0,16.0,74,0.00,,,0.00,Wunderground v.1.15,2013-03-02 23:30:00,
2013-03-02 18:40:00,63.0,54.9,30.00,NNW,346,16.0,16.0,75,0.00,,,0.00,Wunderground v.1.15,2013-03-02 23:40:00,
2013-03-02 18:45:00,62.8,54.8,30.00,North,7,16.0,16.0,75,0.00,,,0.00,Wunderground v.1.15,2013-03-02 23:45:00,
2013-03-02 18:55:00,62.6,54.2,30.00,North,4,16.0,18.0,74,0.00,,,0.00,Wunderground v.1.15,2013-03-02 23:55:00,
2013-03-02 19:00:00,62.4,54.0,30.00,North,358,16.0,16.0,74,0.00,,,0.00,Wunderground v.1.15,2013-03-03 00:00:00,
2013-03-02 19:05:00,62.4,54.0,30.00,North,357,15.0,16.0,74,0.00,,,0.00,Wunderground v.1.15,2013-03-03 00:05:00,
2013-03-02 19:15:00,62.3,53.9,30.00,North,7,15.0,15.0,74,0.00,,,0.00,Wunderground v.1.15,2013-03-03 00:15:00,
2013-03-02 19:20:00,62.2,53.8,30.01,North,10,13.0,14.0,74,0.00,,,0.00,Wunderground v.1.15,2013-03-03 00:20:00,
2013-03-02 19:30:00,62.1,53.7,30.01,North,7,14.0,14.0,74,0.00,,,0.00,Wunderground v.1.15,2013-03-03 00:30:00,
2013-03-02 19:35:00,62.2,54.2,30.01,North,3,14.0,18.0,75,0.00,,,0.00,Wunderground v.1.15,2013-03-03 00:35:00,
2013-03-02 19:45:00,62.2,54.5,30.01,NNE,12,15.0,17.0,76,0.00,,,0.00,Wunderground v.1.15,2013-03-03 00:45:00,
2013-03-02 19:50:00,62.1,54.4,30.01,NNE,17,13.0,13.0,76,0.00,,,0.00,Wunderground v.1.15,2013-03-03 00:50:00,
2013-03-02 19:55:00,62.0,54.3,30.02,NNE,13,12.0,14.0,76,0.00,,,0.00,Wunderground v.1.15,2013-03-03 00:55:00,
2013-03-02 20:05:00,62.2,54.5,30.02,North,357,12.0,18.0,76,0.00,,,0.00,Wunderground v.1.15,2013-03-03 01:05:00,
2013-03-02 20:10:00,62.1,54.1,30.02,North,5,14.0,14.0,75,0.00,,,0.00,Wunderground v.1.15,2013-03-03 01:10:00,
2013-03-02 20:20:00,62.1,53.7,30.02,North,356,14.0,14.0,74,0.00,,,0.00,Wunderground v.1.15,2013-03-03 01:20:00,
2013-03-02 20:25:00,62.0,53.6,30.03,North,359,13.0,16.0,74,0.00,,,0.00,Wunderground v.1.15,2013-03-03 01:25:00,
2013-03-02 20:30:00,62.1,53.7,30.03,North,354,13.0,13.0,74,0.00,,,0.00,Wunderground v.1.15,2013-03-03 01:30:00,
2013-03-02 20:40:00,62.1,53.3,30.03,North,360,12.0,12.0,73,0.00,,,0.00,Wunderground v.1.15,2013-03-03 01:40:00,
2013-03-02 20:45:00,62.2,53.8,30.03,North,3,12.0,12.0,74,0.00,,,0.00,Wunderground v.1.15,2013-03-03 01:45:00,
2013-03-02 20:55:00,62.4,53.6,30.03,North,360,13.0,15.0,73,0.00,,,0.00,Wunderground v.1.15,2013-03-03 01:55:00,
2013-03-02 21:00:00,62.4,53.6,30.04,North,9,12.0,12.0,73,0.00,,,0.00,Wunderground v.1.15,2013-03-03 02:00:00,
2013-03-02 21:10:00,62.5,54.1,30.04,NNW,348,11.0,14.0,74,0.00,,,0.00,Wunderground v.1.15,2013-03-03 02:10:00,
2013-03-02 21:15:00,62.6,54.2,30.04,North,350,13.0,14.0,74,0.00,,,0.00,Wunderground v.1.15,2013-03-03 02:15:00,
2013-03-02 21:20:00,62.5,54.1,30.04,NW,321,13.0,13.0,74,0.00,,,0.00,Wunderground v.1.15,2013-03-03 02:20:00,
2013-03-02 21:30:00,61.9,53.1,30.04,NW,320,7.0,7.0,73,0.00,,,0.00,Wunderground v.1.15,2013-03-03 02:30:00,
2013-03-02 21:35:00,61.6,52.5,30.04,NW,310,7.0,10.0,72,0.00,,,0.00,Wunderground v.1.15,2013-03-03 02:35:00,
2013-03-02 21:40:00,61.7,53.0,30.04,North,350,7.0,7.0,73,0.00,,,0.00,Wunderground v.1.15,2013-03-03 02:40:00,
2013-03-02 21:50:00,61.8,53.4,30.04,NNW,334,6.0,7.0,74,0.00,,,0.00,Wunderground v.1.15,2013-03-03 02:50:00,
2013-03-02 21:55:00,61.8,53.1,30.04,NNW,338,8.0,9.0,73,0.00,,,0.00,Wunderground v.1.15,2013-03-03 02:55:00,
2013-03-02 22:00:00,61.8,52.3,30.04,NW,324,9.0,9.0,71,0.00,,,0.00,Wunderground v.1.15,2013-03-03 03:00:00,
2013-03-02 22:10:00,62.0,53.2,30.04,North,1,8.0,10.0,73,0.00,,,0.00,Wunderground v.1.15,2013-03-03 03:10:00,
2013-03-02 22:15:00,62.2,54.2,30.04,NNE,30,10.0,11.0,75,0.00,,,0.00,Wunderground v.1.15,2013-03-03 03:15:00,
2013-03-02 22:25:00,62.0,54.0,30.03,NNE,21,10.0,11.0,75,0.00,,,0.00,Wunderground v.1.15,2013-03-03 03:25:00,
2013-03-02 22:30:00,61.8,53.8,30.03,NNE,13,9.0,9.0,75,0.00,,,0.00,Wunderground v.1.15,2013-03-03 03:30:00,
2013-03-02 22:40:00,61.8,54.2,30.03,NNE,17,9.0,9.0,76,0.00,,,0.00,Wunderground v.1.15,2013-03-03 03:40:00,
2013-03-02 22:45:00,61.7,54.1,30.03,NNE,27,9.0,9.0,76,0.00,,,0.00,Wunderground v.1.15,2013-03-03 03:45:00,
2013-03-02 22:50:00,61.6,54.0,30.02,NNE,22,9.0,9.0,76,0.00,,,0.00,Wunderground v.1.15,2013-03-03 03:50:00,
2013-03-02 23:00:00,61.4,53.8,30.02,NNE,23,7.0,7.0,76,0.00,,,0.00,Wunderground v.1.15,2013-03-03 04:00:00,
2013-03-02 23:05:00,61.3,53.7,30.02,North,11,6.0,7.0,76,0.00,,,0.00,Wunderground v.1.15,2013-03-03 04:05:00,
2013-03-02 23:15:00,61.1,53.5,30.02,North,11,4.0,5.0,76,0.00,,,0.00,Wunderground v.1.15,2013-03-03 04:15:00,
2013-03-02 23:20:00,61.1,53.5,30.02,North,11,4.0,4.0,76,0.00,,,0.00,Wunderground v.1.15,2013-03-03 04:20:00,
2013-03-02 23:25:00,61.0,53.4,30.01,North,11,3.0,4.0,76,0.00,,,0.00,Wunderground v.1.15,2013-03-03 04:25:00,
2013-03-02 23:35:00,60.8,52.8,30.02,North,11,2.0,3.0,75,0.00,,,0.00,Wunderground v.1.15,2013-03-03 04:35:00,
2013-03-02 23:45:00,60.5,52.5,30.02,North,11,1.0,2.0,75,0.00,,,0.00,Wunderground v.1.15,2013-03-03 04:45:00,
2013-03-02 23:50:00,60.2,51.9,30.02,North,11,1.0,1.0,74,0.00,,,0.00,Wunderground v.1.15,2013-03-03 04:50:00,
2013-03-02 23:55:00,60.1,51.8,30.02,North,11,2.0,2.0,74,0.00,,,0.00,Wunderground v.1.15,2013-03-03 04:55:00,